Time;durP1;ratioP1;P1;durP2;ratioP2;P2;SDS_P1;SDS_P2;PMS_P1;PMS_P2;Temp;Humidity;BMP_temperature;BMP_pressure;BME280_temperature;BME280_humidity;BME280_pressure;Samples;Min_cycle;Max_cycle;Signal;HPM_P1;HPM_P2
2022/08/11 00:00:18;;;;;;;2.28;1.73;;;18.20;47.50;;;;;;4993735;28;20026;-82
2022/08/11 00:02:50;;;;;;;3.05;1.35;;;18.20;47.50;;;;;;4993848;28;20034;-82
2022/08/11 00:05:18;;;;;;;3.50;1.45;;;18.20;47.70;;;;;;4993643;28;20101;-82
2022/08/11 00:07:53;;;;;;;6.60;1.73;;;18.20;47.60;;;;;;4993671;28;20092;-84
2022/08/11 00:10:24;;;;;;;3.80;1.35;;;18.20;48.10;;;;;;4995160;28;20168;-83
2022/08/11 00:13:02;;;;;;;3.28;1.60;;;18.10;48.30;;;;;;4998054;28;20077;-84
2022/08/11 00:15:38;;;;;;;4.88;1.38;;;18.10;48.30;;;;;;5017941;28;20042;-82
2022/08/11 00:18:04;;;;;;;2.42;1.20;;;18.10;48.20;;;;;;5016495;28;20010;-80
2022/08/11 00:20:34;;;;;;;3.83;1.27;;;18.10;48.40;;;;;;5016450;28;20054;-78
2022/08/11 00:23:15;;;;;;;3.03;1.42;;;18.10;48.30;;;;;;5000454;28;20030;-82
2022/08/11 00:25:50;;;;;;;2.55;1.40;;;18.00;48.40;;;;;;4997860;28;20026;-81
2022/08/11 00:28:23;;;;;;;;;;;18.10;48.30;;;;;;4998388;28;20030;-83
2022/08/11 00:30:51;;;;;;;1.73;1.30;;;18.10;48.40;;;;;;4998118;28;19916;-81
2022/08/11 00:33:18;;;;;;;4.93;1.60;;;18.10;48.20;;;;;;4997993;28;20121;-83
2022/08/11 00:35:45;;;;;;;4.13;1.42;;;18.10;48.40;;;;;;4998385;28;20014;-82
2022/08/11 00:38:11;;;;;;;4.88;1.75;;;18.10;48.20;;;;;;4997498;28;20030;-82
2022/08/11 00:40:49;;;;;;;3.63;1.70;;;18.10;48.20;;;;;;4997752;28;20033;-83
2022/08/11 00:43:49;;;;;;;1.77;1.40;;;18.10;48.30;;;;;;4997725;28;20101;-82
2022/08/11 00:46:46;;;;;;;2.75;1.50;;;18.10;48.30;;;;;;4997132;28;20045;-80
2022/08/11 00:49:29;;;;;;;1.45;1.35;;;18.10;49.00;;;;;;4997179;28;20484;-82
2022/08/11 00:52:08;;;;;;;1.90;1.40;;;18.20;48.30;;;;;;4996945;28;20027;-82
2022/08/11 00:55:22;;;;;;;5.38;1.65;;;18.30;48.10;;;;;;4996606;28;20557;-82
2022/08/11 00:58:16;;;;;;;5.15;1.88;;;18.40;47.70;;;;;;4996794;28;20041;-82
2022/08/11 01:01:15;;;;;;;1.67;1.17;;;18.50;47.40;;;;;;4996969;28;20423;-82
2022/08/11 01:04:16;;;;;;;3.30;1.70;;;18.50;47.40;;;;;;4996670;28;20027;-79
2022/08/11 01:07:14;;;;;;;2.40;1.63;;;18.50;47.10;;;;;;4996636;28;20076;-81
2022/08/11 01:10:07;;;;;;;2.05;1.63;;;18.40;47.30;;;;;;4996955;28;20030;-77
2022/08/11 01:12:54;;;;;;;2.03;1.60;;;18.50;47.40;;;;;;4996481;28;20026;-82
2022/08/11 01:15:32;;;;;;;3.05;1.40;;;18.40;47.50;;;;;;4997033;28;20050;-80
2022/08/11 01:18:09;;;;;;;2.92;1.75;;;18.40;47.80;;;;;;4996596;28;20087;-78
2022/08/11 01:21:07;;;;;;;2.33;1.45;;;18.40;47.70;;;;;;4996392;28;20027;-78
2022/08/11 01:24:10;;;;;;;2.13;1.45;;;18.30;47.90;;;;;;4996687;28;20121;-81
2022/08/11 01:27:12;;;;;;;4.55;1.80;;;18.30;48.10;;;;;;4996500;28;20022;-82
2022/08/11 01:29:59;;;;;;;1.77;1.23;;;18.30;48.00;;;;;;4996391;28;20022;-81
2022/08/11 01:32:43;;;;;;;4.43;1.65;;;18.20;48.60;;;;;;4996283;28;20041;-82
2022/08/11 01:35:52;;;;;;;2.58;1.73;;;18.10;49.00;;;;;;4995785;28;20026;-82
2022/08/11 01:38:29;;;;;;;3.65;1.75;;;18.00;49.00;;;;;;4995909;28;20464;-81
2022/08/11 01:44:43;;;;;;;2.42;2.15;;;18.00;49.20;;;;;;4996213;28;20108;-82
2022/08/11 01:50:29;;;;;;;3.45;1.65;;;17.90;49.90;;;;;;4982952;28;20122;-82
2022/08/11 01:53:07;;;;;;;2.90;1.88;;;17.80;50.00;;;;;;4994803;28;20134;-82
2022/08/11 01:56:04;;;;;;;3.08;1.52;;;17.90;50.20;;;;;;4995773;28;20476;-81
2022/08/11 01:58:47;;;;;;;6.55;1.50;;;17.90;50.10;;;;;;4995959;28;20065;-82
2022/08/11 02:01:24;;;;;;;3.22;1.58;;;17.90;50.10;;;;;;4995828;28;20026;-81
2022/08/11 02:04:13;;;;;;;2.35;1.63;;;17.90;50.10;;;;;;4995732;28;20026;-82
2022/08/11 02:06:55;;;;;;;1.85;1.70;;;18.00;50.10;;;;;;4995231;28;20052;-82
2022/08/11 02:09:42;;;;;;;3.75;1.70;;;17.90;50.10;;;;;;4995508;28;20468;-81
2022/08/11 02:12:39;;;;;;;5.00;2.03;;;17.90;50.20;;;;;;4995364;28;20484;-81
2022/08/11 02:15:41;;;;;;;2.58;1.50;;;17.90;50.30;;;;;;4995291;28;20109;-81
2022/08/11 02:18:20;;;;;;;2.70;1.55;;;17.90;50.50;;;;;;4972238;28;20038;-82
2022/08/11 02:23:51;;;;;;;4.93;1.85;;;17.90;50.90;;;;;;4994990;28;20026;-81
2022/08/11 02:26:47;;;;;;;2.25;1.55;;;17.90;50.90;;;;;;4995415;28;20472;-81
2022/08/11 02:29:28;;;;;;;1.95;1.38;;;17.90;50.90;;;;;;4993656;28;20069;-80
2022/08/11 02:35:35;;;;;;;2.28;1.80;;;17.90;50.90;;;;;;4995078;28;20548;-82
2022/08/11 02:38:32;;;;;;;1.73;1.30;;;17.90;51.10;;;;;;4994974;28;20072;-81
2022/08/11 02:44:36;;;;;;;3.38;1.70;;;17.90;51.10;;;;;;4995040;28;20025;-80
2022/08/11 02:47:37;;;;;;;2.75;1.80;;;17.80;51.10;;;;;;4993443;28;20088;-81
2022/08/11 02:50:19;;;;;;;3.15;1.70;;;17.80;51.30;;;;;;4994588;28;20027;-81
2022/08/11 02:53:09;;;;;;;1.85;1.67;;;17.80;51.30;;;;;;4994839;28;20034;-82
2022/08/11 02:55:51;;;;;;;2.80;1.92;;;17.70;51.40;;;;;;5013133;28;20507;-78
2022/08/11 02:58:22;;;;;;;3.15;1.98;;;17.70;51.60;;;;;;5014287;28;20042;-79
2022/08/11 03:01:27;;;;;;;2.30;1.63;;;17.70;51.80;;;;;;5014824;28;20018;-77
2022/08/11 03:03:59;;;;;;;3.78;2.10;;;17.70;52.10;;;;;;4997983;28;20026;-83
2022/08/11 03:06:56;;;;;;;3.40;1.70;;;17.60;52.40;;;;;;4994323;28;20077;-81
2022/08/11 03:09:41;;;;;;;3.15;1.88;;;17.60;52.90;;;;;;4994366;28;20065;-82
2022/08/11 03:18:23;;;;;;;2.30;1.80;;;17.40;53.20;;;;;;4994571;28;20494;-81
2022/08/11 03:21:08;;;;;;;4.22;2.00;;;17.40;53.30;;;;;;4994285;28;20027;-81
2022/08/11 03:23:36;;;;;;;4.53;2.75;;;17.30;53.30;;;;;;4994270;28;20022;-81
2022/08/11 03:26:38;;;;;;;6.07;3.30;;;17.30;53.60;;;;;;4992910;28;20022;-81
2022/08/11 03:29:33;;;;;;;7.28;3.55;;;17.20;53.80;;;;;;4994219;28;20053;-81
2022/08/11 03:32:20;;;;;;;5.40;3.35;;;17.20;53.90;;;;;;4994128;28;20033;-81
2022/08/11 03:34:49;;;;;;;5.40;3.75;;;17.20;54.10;;;;;;4994119;28;20046;-81
2022/08/11 03:43:23;;;;;;;5.50;3.13;;;17.10;54.50;;;;;;4993964;28;20142;-82
2022/08/11 03:46:06;;;;;;;4.80;3.17;;;16.90;54.90;;;;;;4993713;28;20405;-80
2022/08/11 03:49:14;;;;;;;4.85;3.50;;;16.90;55.10;;;;;;4993847;28;20112;-81
2022/08/11 03:52:01;;;;;;;3.72;2.40;;;16.90;55.10;;;;;;4993771;28;20050;-81
2022/08/11 03:54:32;;;;;;;3.45;2.65;;;16.80;55.30;;;;;;4993701;28;20022;-80
2022/08/11 03:57:22;;;;;;;5.65;2.90;;;16.80;55.50;;;;;;4994332;28;20395;-81
2022/08/11 04:00:28;;;;;;;4.45;2.92;;;16.90;55.60;;;;;;4994178;28;20022;-82
2022/08/11 04:03:06;;;;;;;6.15;3.08;;;16.90;55.40;;;;;;4992863;28;20099;-82
2022/08/11 04:06:01;;;;;;;4.28;2.80;;;16.80;55.50;;;;;;4994349;28;20031;-79
2022/08/11 04:08:54;;;;;;;4.25;2.60;;;16.80;55.90;;;;;;4994482;28;20018;-80
2022/08/11 04:11:39;;;;;;;4.03;3.10;;;16.80;56.10;;;;;;4993921;28;20034;-78
2022/08/11 04:17:56;;;;;;;6.78;3.00;;;16.80;56.10;;;;;;4993575;28;20033;-78
2022/08/11 04:20:48;;;;;;;4.10;2.83;;;16.80;56.20;;;;;;4993281;28;20022;-78
2022/08/11 04:23:48;;;;;;;5.05;2.88;;;16.70;56.00;;;;;;4993594;28;20034;-80
2022/08/11 04:26:32;;;;;;;2.75;2.25;;;16.70;56.30;;;;;;4993394;28;20081;-79
2022/08/11 04:29:31;;;;;;;4.25;2.90;;;16.70;56.40;;;;;;4993325;28;20023;-80
2022/08/11 04:32:22;;;;;;;4.65;2.80;;;16.50;56.70;;;;;;4993355;28;20084;-79
2022/08/11 04:35:21;;;;;;;2.83;2.33;;;16.50;57.00;;;;;;4993151;28;20029;-79
2022/08/11 04:38:25;;;;;;;4.65;2.60;;;16.50;57.10;;;;;;4961880;28;20030;-79
2022/08/11 04:41:33;;;;;;;3.88;2.40;;;16.40;57.50;;;;;;4993207;28;20428;-80
2022/08/11 04:44:18;;;;;;;4.43;2.53;;;16.40;57.40;;;;;;4991998;28;20121;-79
2022/08/11 05:01:39;;;;;;;2.75;2.25;;;16.50;57.40;;;;;;4993173;28;20019;-81
2022/08/11 05:02:42;;;;;;;3.65;2.45;;;16.70;56.90;;;;;;4972773;28;20102;-78
2022/08/11 05:05:32;;;;;;;3.72;2.60;;;16.70;57.00;;;;;;4992969;28;20031;-78
2022/08/11 05:08:33;;;;;;;3.25;2.25;;;16.70;57.20;;;;;;4991585;28;20097;-79
2022/08/11 05:11:29;;;;;;;4.57;2.50;;;16.80;56.90;;;;;;4929304;28;20128;-79
2022/08/11 05:37:28;;;;;;;2.75;2.45;;;17.80;54.00;;;;;;4996226;28;20073;-79
2022/08/11 05:57:21;;;;;;;3.80;2.30;;;18.50;52.00;;;;;;4995987;28;20048;-79
2022/08/11 05:59:47;;;;;;;10.02;3.03;;;18.60;51.50;;;;;;4995591;28;20022;-78
2022/08/11 06:02:14;;;;;;;6.30;2.88;;;18.70;51.10;;;;;;4995557;28;20033;-79
2022/08/11 06:04:39;;;;;;;8.82;2.60;;;18.60;51.30;;;;;;4995536;28;20591;-78
2022/08/11 06:07:08;;;;;;;8.10;2.42;;;18.70;51.10;;;;;;4995179;28;20062;-78
2022/08/11 06:09:45;;;;;;;4.32;2.40;;;18.80;51.00;;;;;;4995438;28;20029;-78
2022/08/11 06:12:25;;;;;;;4.40;2.58;;;18.80;50.50;;;;;;4995187;28;20030;-78
2022/08/11 06:14:54;;;;;;;4.05;2.70;;;18.90;50.10;;;;;;4995294;28;20061;-79
2022/08/11 06:17:32;;;;;;;2.97;2.35;;;18.90;49.70;;;;;;4995175;28;20046;-78
2022/08/11 06:20:05;;;;;;;4.53;3.13;;;19.00;49.90;;;;;;4995036;28;20476;-79
2022/08/11 06:22:32;;;;;;;4.13;2.42;;;18.90;49.90;;;;;;4995411;28;20033;-79
2022/08/11 06:25:01;;;;;;;7.38;2.28;;;18.90;49.90;;;;;;4995597;28;20028;-78
2022/08/11 06:27:30;;;;;;;10.32;2.83;;;19.10;49.50;;;;;;4997781;28;20339;-79
2022/08/11 06:29:56;;;;;;;4.95;2.30;;;19.20;48.80;;;;;;4997414;28;20022;-79
2022/08/11 06:32:27;;;;;;;9.68;2.60;;;19.30;49.30;;;;;;4995405;28;20121;-78
2022/08/11 06:34:58;;;;;;;4.18;2.28;;;19.40;48.30;;;;;;4995148;28;20469;-78
2022/08/11 06:37:52;;;;;;;4.95;2.72;;;19.50;47.70;;;;;;4994903;28;20050;-78
2022/08/11 06:44:12;;;;;;;6.68;2.47;;;19.60;47.60;;;;;;4951307;28;20428;-78
2022/08/11 06:46:49;;;;;;;9.15;3.00;;;19.70;47.30;;;;;;4994299;28;20026;-78
2022/08/11 06:52:11;;;;;;;6.43;2.55;;;20.00;47.00;;;;;;4994528;28;20093;-78
2022/08/11 06:54:43;;;;;;;15.13;3.03;;;20.20;46.60;;;;;;4994527;28;20037;-80
2022/08/11 07:02:53;;;;;;;4.38;2.28;;;20.60;45.60;;;;;;4994147;28;20037;-77
2022/08/11 07:05:36;;;;;;;4.00;2.10;;;20.70;45.40;;;;;;4993292;28;20048;-79
2022/08/11 07:17:22;;;;;;;8.38;2.45;;;21.30;44.10;;;;;;4994546;28;20053;-79
2022/08/11 07:31:12;;;;;;;30.10;5.05;;;22.10;40.30;;;;;;4994197;28;20460;-78
2022/08/11 07:33:51;;;;;;;3.00;2.20;;;22.30;40.30;;;;;;4993429;28;20082;-81
2022/08/11 07:36:17;;;;;;;7.97;1.95;;;22.50;40.00;;;;;;4993950;28;20022;-83
2022/08/11 07:38:52;;;;;;;9.35;2.30;;;22.50;37.90;;;;;;4994144;28;20348;-81
2022/08/11 07:41:21;;;;;;;3.38;2.03;;;22.70;38.70;;;;;;4993781;28;20025;-78
2022/08/11 07:43:50;;;;;;;5.93;2.20;;;22.70;37.50;;;;;;4993001;28;20034;-78
2022/08/11 07:54:33;;;;;;;5.88;2.03;;;23.30;36.20;;;;;;4994050;28;20049;-79
2022/08/11 08:19:14;;;;;;;2.42;1.60;;;23.30;33.20;;;;;;4993927;28;19913;-85
2022/08/11 08:21:42;;;;;;;3.80;1.80;;;23.30;32.90;;;;;;4993689;28;20101;-86
2022/08/11 08:24:09;;;;;;;2.88;1.48;;;23.40;33.30;;;;;;4993317;28;20366;-83
2022/08/11 09:01:54;;;;;;;5.10;1.40;;;24.30;29.80;;;;;;5067484;23;20070;-82
2022/08/11 09:10:08;;;;;;;4.45;1.92;;;24.40;30.00;;;;;;5112695;23;20062;-83
2022/08/11 09:12:37;;;;;;;3.67;1.20;;;24.50;30.20;;;;;;5285072;23;20808;-81
2022/08/11 09:17:47;;;;;;;5.82;1.45;;;24.70;29.90;;;;;;4961002;23;20461;-81
2022/08/11 09:35:10;;;;;;;3.03;1.50;;;25.40;28.20;;;;;;4754514;23;20075;-87
2022/08/11 09:41:30;;;;;;;3.58;1.80;;;25.60;28.00;;;;;;5220750;23;20058;-85
2022/08/11 09:46:40;;;;;;;6.05;1.83;;;25.90;27.00;;;;;;5089291;23;20054;-79
2022/08/11 09:49:06;;;;;;;1.63;1.40;;;25.80;26.20;;;;;;5071837;23;20051;-81
2022/08/11 09:54:07;;;;;;;2.78;1.73;;;25.90;26.90;;;;;;5558011;23;20051;-82
2022/08/11 10:04:46;;;;;;;3.05;1.40;;;26.50;25.40;;;;;;5462076;23;20143;-82
2022/08/11 10:13:04;;;;;;;1.80;1.20;;;26.80;24.80;;;;;;4888601;23;20065;-79
2022/08/11 10:15:33;;;;;;;2.47;1.38;;;27.00;25.10;;;;;;4879444;29;20186;-78
2022/08/11 10:18:41;;;;;;;5.50;1.52;;;27.10;24.60;;;;;;4879099;29;20029;-78
2022/08/11 10:21:16;;;;;;;1.67;1.15;;;27.20;24.30;;;;;;4880459;29;20052;-78
2022/08/11 10:33:59;;;;;;;3.80;1.55;;;27.40;23.70;;;;;;5167481;23;20053;-79
2022/08/11 10:34:27;;;;;;;3.25;1.25;;;27.60;24.50;;;;;;5402512;23;21220;-79
2022/08/11 10:37:35;;;;;;;4.60;1.50;;;27.80;24.50;;;;;;4862100;29;20125;-79
2022/08/11 10:40:03;;;;;;;3.83;1.40;;;27.80;23.80;;;;;;4882062;23;20423;-80
2022/08/11 10:47:59;;;;;;;1.67;1.40;;;27.20;24.10;;;;;;5211715;23;20177;-86
2022/08/11 11:00:45;;;;;;;4.60;1.42;;;27.90;24.20;;;;;;5289143;23;20057;-77
2022/08/11 11:05:48;;;;;;;3.00;1.90;;;28.10;23.90;;;;;;4988536;23;20148;-87
2022/08/11 11:11:02;;;;;;;2.97;1.30;;;28.40;23.80;;;;;;4880034;29;20429;-79
2022/08/11 11:19:05;;;;;;;4.93;1.40;;;28.60;22.80;;;;;;5433471;23;20132;-82
2022/08/11 11:21:31;;;;;;;4.82;1.45;;;28.80;22.90;;;;;;5380796;23;20715;-77
2022/08/11 11:24:36;;;;;;;4.25;2.30;;;28.90;22.30;;;;;;4879946;29;20037;-76
2022/08/11 11:27:04;;;;;;;4.05;1.38;;;29.00;22.70;;;;;;5128132;23;20068;-77
2022/08/11 11:32:20;;;;;;;5.45;1.67;;;29.10;22.70;;;;;;4934053;29;20043;-76
2022/08/11 11:35:22;;;;;;;2.20;1.52;;;29.00;22.10;;;;;;5125773;23;20072;-77
2022/08/11 11:37:49;;;;;;;4.47;1.95;;;29.00;23.00;;;;;;5177856;23;20045;-77
2022/08/11 11:40:20;;;;;;;3.40;1.33;;;29.00;23.80;;;;;;4880602;29;20543;-77
2022/08/11 11:42:49;;;;;;;4.07;1.73;;;29.00;23.20;;;;;;4880099;29;20482;-77
2022/08/11 11:45:20;;;;;;;3.20;1.67;;;28.90;22.70;;;;;;4878556;29;20403;-77
2022/08/11 11:47:51;;;;;;;3.78;1.90;;;28.90;23.30;;;;;;4879884;29;20037;-76
2022/08/11 11:52:54;;;;;;;2.42;1.73;;;29.30;23.90;;;;;;4914689;23;20061;-77
2022/08/11 11:55:22;;;;;;;4.55;1.52;;;29.50;23.60;;;;;;5086077;23;20093;-77
2022/08/11 12:03:20;;;;;;;3.35;1.48;;;29.30;22.60;;;;;;5119674;23;20125;-77
2022/08/11 12:05:46;;;;;;;2.88;1.63;;;29.40;22.10;;;;;;4877849;29;20029;-76
2022/08/11 12:10:42;;;;;;;2.63;1.30;;;29.70;23.00;;;;;;4879606;29;20033;-75
2022/08/11 12:15:53;;;;;;;3.50;1.67;;;29.70;21.20;;;;;;4879971;29;20044;-75
2022/08/11 12:18:18;;;;;;;2.97;1.50;;;29.50;22.00;;;;;;4880182;29;20041;-80
2022/08/11 12:20:44;;;;;;;2.17;1.60;;;29.50;22.80;;;;;;4883378;29;20104;-79
2022/08/11 12:28:43;;;;;;;7.90;1.65;;;30.10;21.10;;;;;;4883019;29;20492;-75
2022/08/11 12:36:21;;;;;;;2.22;1.38;;;30.00;21.30;;;;;;4898713;23;20068;-78
2022/08/11 12:38:49;;;;;;;9.70;1.73;;;30.30;21.80;;;;;;4882588;29;20029;-79
2022/08/11 12:46:46;;;;;;;3.13;1.52;;;31.00;20.40;;;;;;4882698;29;20048;-80
2022/08/11 12:52:07;;;;;;;2.67;1.65;;;31.00;19.90;;;;;;4882335;29;20039;-80
2022/08/11 12:54:58;;;;;;;3.60;1.70;;;31.10;19.80;;;;;;4882693;29;20029;-81
2022/08/11 13:05:56;;;;;;;2.78;1.80;;;31.90;18.90;;;;;;4882240;29;20502;-79
2022/08/11 13:08:23;;;;;;;7.15;2.40;;;31.90;19.20;;;;;;4882133;29;20036;-78
2022/08/11 13:13:38;;;;;;;2.60;1.75;;;32.00;19.00;;;;;;4881913;29;20348;-75
2022/08/11 13:16:05;;;;;;;3.83;1.70;;;31.70;18.30;;;;;;4881609;29;20057;-76
2022/08/11 13:18:33;;;;;;;3.70;1.90;;;31.40;18.60;;;;;;4882763;29;20032;-76
2022/08/11 13:20:59;;;;;;;4.53;2.00;;;31.30;20.10;;;;;;4880645;29;20051;-75
2022/08/11 13:23:26;;;;;;;2.63;1.50;;;31.40;20.20;;;;;;4882097;29;20104;-76
2022/08/11 13:25:53;;;;;;;3.90;1.95;;;31.50;19.80;;;;;;4882048;29;20111;-74
2022/08/11 13:28:21;;;;;;;7.15;1.85;;;31.30;19.90;;;;;;4881887;29;20096;-73
2022/08/11 13:33:38;;;;;;;1.70;1.60;;;31.30;20.60;;;;;;4881900;29;20101;-74
2022/08/11 13:36:05;;;;;;;2.13;1.50;;;31.50;19.80;;;;;;4882157;29;20045;-76
2022/08/11 13:38:31;;;;;;;2.03;1.60;;;31.50;19.30;;;;;;4882161;29;20037;-74
2022/08/11 13:40:57;;;;;;;1.40;1.30;;;31.60;18.90;;;;;;4881524;29;20048;-75
2022/08/11 13:43:23;;;;;;;3.47;1.63;;;31.70;18.50;;;;;;4881880;29;20480;-74
2022/08/11 13:45:51;;;;;;;1.80;1.70;;;31.80;18.60;;;;;;4881755;29;20040;-76
2022/08/11 13:48:17;;;;;;;3.25;1.70;;;32.00;19.10;;;;;;4881306;29;20472;-76
2022/08/11 13:53:30;;;;;;;3.05;1.70;;;32.20;18.60;;;;;;4881284;29;20044;-79
2022/08/11 13:55:59;;;;;;;3.45;1.55;;;32.10;17.70;;;;;;4881288;29;20112;-79
2022/08/11 13:58:26;;;;;;;3.22;1.60;;;32.00;18.30;;;;;;4880678;29;20064;-78
2022/08/11 14:00:53;;;;;;;4.13;1.80;;;32.10;19.00;;;;;;4881267;29;20025;-77
2022/08/11 14:03:24;;;;;;;2.05;1.85;;;32.20;17.90;;;;;;4880938;29;20097;-80
2022/08/11 14:05:52;;;;;;;3.72;2.08;;;32.40;17.90;;;;;;4881053;29;20483;-80
2022/08/11 14:08:32;;;;;;;3.33;1.50;;;32.50;17.90;;;;;;4880900;29;20037;-79
2022/08/11 14:13:47;;;;;;;3.45;1.70;;;32.80;17.60;;;;;;4880971;29;20468;-79
2022/08/11 14:16:25;;;;;;;2.35;1.52;;;32.90;17.50;;;;;;4881417;29;20029;-79
2022/08/11 14:18:55;;;;;;;3.35;1.77;;;33.00;18.10;;;;;;4881153;29;20033;-79
2022/08/11 14:24:10;;;;;;;1.65;1.55;;;32.60;17.10;;;;;;4881777;29;20040;-80
2022/08/11 14:26:42;;;;;;;5.05;2.13;;;32.40;18.10;;;;;;4880675;29;20495;-77
2022/08/11 14:29:14;;;;;;;4.80;2.10;;;32.40;18.20;;;;;;4880475;29;20100;-78
2022/08/11 14:31:47;;;;;;;4.30;1.80;;;32.40;17.80;;;;;;4880444;29;20041;-78
2022/08/11 14:34:17;;;;;;;4.18;1.65;;;32.40;17.90;;;;;;4880536;29;20044;-79
2022/08/11 14:36:45;;;;;;;3.05;1.50;;;32.40;17.50;;;;;;4880290;29;20049;-82
2022/08/11 14:39:16;;;;;;;3.83;1.70;;;32.50;17.70;;;;;;4880458;29;20029;-80
2022/08/11 14:47:17;;;;;;;3.33;1.77;;;32.40;18.30;;;;;;4880793;29;20088;-78
2022/08/11 14:49:43;;;;;;;5.28;1.88;;;32.50;17.70;;;;;;4880118;29;20112;-80
2022/08/11 14:52:14;;;;;;;2.70;1.63;;;32.60;17.70;;;;;;4879463;29;20025;-78
2022/08/11 14:57:34;;;;;;;3.63;1.85;;;32.70;17.20;;;;;;4879780;29;20033;-79
2022/08/11 15:00:05;;;;;;;1.60;1.50;;;32.40;17.30;;;;;;4879325;29;20033;-79
2022/08/11 15:05:21;;;;;;;3.75;1.80;;;32.00;18.30;;;;;;4882206;29;20040;-78
2022/08/11 15:07:47;;;;;;;4.78;1.90;;;32.00;18.50;;;;;;4884814;29;20029;-79
2022/08/11 15:10:16;;;;;;;2.45;1.42;;;32.10;18.60;;;;;;4880182;29;20040;-77
2022/08/11 15:12:43;;;;;;;5.07;1.55;;;32.10;18.20;;;;;;4879562;29;20032;-79
2022/08/11 15:17:59;;;;;;;7.65;2.38;;;32.00;18.40;;;;;;4880108;29;20081;-76
2022/08/11 15:26:03;;;;;;;3.65;2.03;;;31.90;18.30;;;;;;4879558;29;20085;-77
2022/08/11 15:45:53;;;;;;;5.63;2.38;;;32.20;18.20;;;;;;4871931;29;20070;-77
2022/08/11 15:48:34;;;;;;;3.35;2.30;;;32.10;18.50;;;;;;4885602;29;20025;-78
2022/08/11 15:51:21;;;;;;;4.65;2.22;;;32.20;18.60;;;;;;4890015;29;20056;-77
2022/08/11 15:53:51;;;;;;;4.63;2.58;;;32.00;18.60;;;;;;4887606;29;20440;-79
2022/08/11 15:56:18;;;;;;;4.32;2.05;;;31.90;18.70;;;;;;4879734;29;20021;-78
2022/08/11 16:04:24;;;;;;;3.38;1.90;;;31.50;19.30;;;;;;4879976;29;20092;-78
2022/08/11 16:06:53;;;;;;;3.92;2.28;;;31.40;19.40;;;;;;4879566;29;20108;-79
2022/08/11 16:09:26;;;;;;;4.03;3.17;;;31.30;19.70;;;;;;4879412;29;20033;-76
2022/08/11 16:11:55;;;;;;;4.95;2.58;;;31.30;19.70;;;;;;4878838;29;20048;-79
2022/08/11 16:17:14;;;;;;;2.40;1.67;;;31.30;19.30;;;;;;4878887;29;20036;-79
2022/08/11 16:19:41;;;;;;;3.03;1.90;;;31.30;19.30;;;;;;4878830;29;20062;-74
2022/08/11 16:22:10;;;;;;;4.05;2.13;;;31.20;19.40;;;;;;4878821;29;20060;-76
2022/08/11 16:24:42;;;;;;;3.55;1.80;;;31.20;19.40;;;;;;4878891;29;20262;-76
2022/08/11 16:27:10;;;;;;;2.53;1.60;;;31.10;19.60;;;;;;4878719;29;20088;-78
2022/08/11 16:29:41;;;;;;;4.15;2.13;;;31.00;19.70;;;;;;4878837;29;20025;-79
2022/08/11 16:32:17;;;;;;;2.75;2.42;;;31.10;19.60;;;;;;4878629;29;20056;-74
2022/08/11 16:40:29;;;;;;;3.30;1.70;;;31.10;19.20;;;;;;4878698;29;20048;-78
2022/08/11 16:48:30;;;;;;;3.92;1.90;;;31.00;19.40;;;;;;4878094;29;20033;-78
2022/08/11 16:50:56;;;;;;;4.60;2.10;;;31.00;19.60;;;;;;4877393;29;20030;-75
2022/08/11 16:53:21;;;;;;;4.05;2.58;;;30.80;19.40;;;;;;4878385;29;20044;-77
2022/08/11 16:55:50;;;;;;;4.10;2.03;;;30.80;19.50;;;;;;4878695;29;20423;-76
2022/08/11 17:01:01;;;;;;;1.93;1.70;;;30.70;19.20;;;;;;4878486;29;20120;-77
2022/08/11 17:14:42;;;;;;;2.53;1.75;;;30.20;19.80;;;;;;4882058;29;20105;-77
2022/08/11 17:17:14;;;;;;;6.15;2.60;;;30.10;19.90;;;;;;4882088;29;20025;-78
2022/08/11 17:19:52;;;;;;;4.57;1.95;;;30.10;20.00;;;;;;4881249;29;20031;-77
2022/08/11 17:25:05;;;;;;;7.43;1.80;;;30.10;20.10;;;;;;4881909;29;20133;-77
2022/08/11 17:27:34;;;;;;;2.47;1.63;;;30.00;20.20;;;;;;4881958;29;20112;-76
2022/08/11 17:30:03;;;;;;;3.67;1.95;;;29.90;20.00;;;;;;4881861;29;20047;-77
2022/08/11 17:35:33;;;;;;;6.43;2.70;;;29.70;20.20;;;;;;4882021;29;20154;-77
2022/08/11 17:38:11;;;;;;;6.95;1.90;;;29.50;20.60;;;;;;4881234;29;20029;-77
2022/08/11 17:48:24;;;;;;;6.75;2.05;;;29.40;20.70;;;;;;4881603;29;20141;-77
2022/08/11 17:48:56;;;;;;;4.13;1.80;;;29.30;21.30;;;;;;4881707;29;20039;-79
2022/08/11 17:59:51;;;;;;;4.88;2.20;;;29.50;20.70;;;;;;4881565;29;19914;-77
2022/08/11 18:05:36;;;;;;;6.30;1.90;;;29.30;21.20;;;;;;4865190;29;20040;-78
